Rhyl, United Kingdom
Current Conditions -  °F | °C
As of 8:20 AM on Monday 26 Jan 2015 (Local Time) from EGNR Reporting Station
Broken Clouds Broken Clouds  
Wind Chill: 38°   Ceiling: 4200
Heat Index: 45°   Visibility: 6mi
Dew Point: 39°   Wind: 13mph
Humidity: 81%   Direction: 290°WNW
Pressure: 30.21"   Gusts: NA
Location:  53.32°N, 3.49°W
Report Text: EGNR 260820Z 29011KT 260V330 9999 SCT037 BKN042 07/04 Q1023
Loading
Personal Weather Stations






























Interactive Weather Map New forecast layout! Learn more

10-Day Weather Forecast

Advertisements
Track Severe Weather on mobile